Time;durP1;ratioP1;P1;durP2;ratioP2;P2;SDS_P1;SDS_P2;PMS_P1;PMS_P2;Temp;Humidity;BMP_temperature;BMP_pressure;BME280_temperature;BME280_humidity;BME280_pressure;Samples;Min_cycle;Max_cycle;Signal;HPM_P1;HPM_P2
2021/12/31 00:01:21;;;;;;;1.38;1.00;;;12.40;99.90;;;;;;5014848;28;20695;-93
2021/12/31 00:04:01;;;;;;;;;;;;;;;;;;;;;
2021/12/31 00:06:42;;;;;;;3.22;1.27;;;12.40;99.90;;;;;;5025667;28;20036;-92
2021/12/31 00:09:16;;;;;;;1.88;1.40;;;12.40;99.90;;;;;;5009324;28;20034;-91
2021/12/31 00:12:28;;;;;;;2.47;1.50;;;12.40;99.90;;;;;;5011175;28;20021;-92
2021/12/31 00:15:11;;;;;;;3.80;1.37;;;12.40;99.90;;;;;;5000355;28;20061;-91
2021/12/31 00:18:00;;;;;;;2.25;1.33;;;12.40;99.90;;;;;;5009298;28;20477;-91
2021/12/31 00:20:39;;;;;;;1.10;1.00;;;12.40;99.90;;;;;;5019265;28;20025;-91
2021/12/31 00:23:24;;;;;;;2.83;1.30;;;12.30;99.90;;;;;;5026009;28;20042;-91
2021/12/31 00:26:05;;;;;;;2.33;1.30;;;12.40;99.90;;;;;;5026690;28;20050;-91
2021/12/31 00:29:02;;;;;;;1.27;1.17;;;12.30;99.90;;;;;;5033205;28;20021;-91
2021/12/31 00:31:33;;;;;;;4.07;1.35;;;12.30;99.90;;;;;;5011472;28;20033;-91
2021/12/31 00:37:18;;;;;;;3.45;2.10;;;12.30;99.90;;;;;;5027378;28;20038;-92
2021/12/31 00:43:18;;;;;;;3.92;2.22;;;12.30;99.90;;;;;;5030696;28;20054;-91
2021/12/31 00:49:15;;;;;;;5.07;2.65;;;12.30;99.90;;;;;;5027163;28;20049;-93
2021/12/31 00:51:46;;;;;;;4.03;1.85;;;12.30;99.90;;;;;;5007529;28;20033;-92
2021/12/31 00:54:29;;;;;;;;;;;;;;;;;;;;;
2021/12/31 00:57:06;;;;;;;3.10;1.58;;;12.30;99.90;;;;;;5027888;28;20181;-92
2021/12/31 00:59:46;;;;;;;2.65;1.40;;;12.30;99.90;;;;;;5017944;28;20037;-92
2021/12/31 01:02:26;;;;;;;1.48;1.38;;;12.30;99.90;;;;;;5007884;28;20409;-92
2021/12/31 01:05:06;;;;;;;1.40;1.10;;;12.30;99.90;;;;;;5014401;28;20043;-92
2021/12/31 01:08:00;;;;;;;2.65;1.73;;;12.20;99.90;;;;;;5006492;28;20036;-92
2021/12/31 01:10:57;;;;;;;2.58;1.25;;;12.30;99.90;;;;;;5007347;28;20034;-92
2021/12/31 01:16:49;;;;;;;2.55;2.00;;;12.20;99.90;;;;;;5015754;28;20029;-91
2021/12/31 01:19:59;;;;;;;4.10;1.48;;;12.20;99.90;;;;;;5011253;28;20038;-92
2021/12/31 01:22:44;;;;;;;0.93;0.90;;;12.20;99.90;;;;;;5012243;28;20033;-92
2021/12/31 01:25:31;;;;;;;5.45;1.13;;;12.10;99.90;;;;;;5023018;28;20044;-93
2021/12/31 01:28:19;;;;;;;2.22;0.93;;;12.10;99.90;;;;;;5019313;28;20026;-92
2021/12/31 01:31:04;;;;;;;1.67;1.08;;;12.10;99.90;;;;;;5021406;28;20508;-92
2021/12/31 01:33:52;;;;;;;3.13;0.98;;;12.10;99.90;;;;;;5015119;28;20442;-92
2021/12/31 01:36:26;;;;;;;2.15;0.90;;;12.10;99.90;;;;;;5023520;28;20505;-92
2021/12/31 01:39:27;;;;;;;1.08;0.98;;;12.10;99.90;;;;;;5009648;28;20308;-92
2021/12/31 01:42:31;;;;;;;;;;;;;;;;;;;;;
2021/12/31 01:45:43;;;;;;;2.17;1.20;;;12.10;99.90;;;;;;5026691;28;20105;-92
2021/12/31 01:51:38;;;;;;;1.75;0.93;;;12.00;99.90;;;;;;5026469;28;20060;-90
2021/12/31 01:54:22;;;;;;;1.30;1.20;;;12.00;99.90;;;;;;4998006;28;20060;-92
2021/12/31 01:56:58;;;;;;;0.93;0.93;;;12.00;99.90;;;;;;4992819;28;20045;-93
2021/12/31 02:00:02;;;;;;;3.08;1.30;;;12.00;99.90;;;;;;5023851;28;20095;-92
2021/12/31 02:05:38;;;;;;;3.95;1.55;;;12.00;99.90;;;;;;5030502;28;20034;-91
2021/12/31 02:08:19;;;;;;;1.38;1.00;;;12.00;99.90;;;;;;5011025;28;20049;-93
2021/12/31 02:11:02;;;;;;;1.83;1.15;;;12.00;99.90;;;;;;5018751;28;20030;-91
2021/12/31 02:17:00;;;;;;;1.40;1.05;;;12.00;99.90;;;;;;5049285;28;20010;-91
2021/12/31 02:19:51;;;;;;;1.52;1.42;;;12.00;99.90;;;;;;5025598;28;20030;-93
2021/12/31 02:22:38;;;;;;;3.28;1.30;;;12.00;99.90;;;;;;5015841;28;20049;-92
2021/12/31 02:25:36;;;;;;;1.75;1.10;;;12.00;99.90;;;;;;5015831;28;20053;-92
2021/12/31 02:28:45;;;;;;;1.58;1.00;;;12.00;99.90;;;;;;5016753;28;20133;-92
2021/12/31 02:31:21;;;;;;;1.30;1.20;;;12.00;99.90;;;;;;5013465;28;20398;-93
2021/12/31 02:34:07;;;;;;;2.97;1.30;;;11.90;99.90;;;;;;5020464;28;20037;-93
2021/12/31 02:37:13;;;;;;;2.25;1.20;;;12.00;99.90;;;;;;5017784;28;20029;-92
2021/12/31 02:40:37;;;;;;;2.40;1.10;;;11.90;99.90;;;;;;5020598;28;20026;-93
2021/12/31 02:43:46;;;;;;;0.90;0.90;;;11.90;99.90;;;;;;4998447;28;20055;-93
2021/12/31 02:46:28;;;;;;;0.98;0.90;;;11.90;99.90;;;;;;5018810;28;20175;-92
2021/12/31 02:49:41;;;;;;;1.02;0.90;;;11.90;99.90;;;;;;5015966;28;20013;-91
2021/12/31 02:52:35;;;;;;;;;;;;;;;;;;;;;
2021/12/31 02:55:25;;;;;;;2.38;1.10;;;11.80;99.90;;;;;;5028424;28;20472;-93
2021/12/31 02:58:09;;;;;;;1.30;1.20;;;11.80;99.90;;;;;;5013068;28;20049;-92
2021/12/31 03:01:16;;;;;;;1.80;1.08;;;11.80;99.90;;;;;;5021331;28;20030;-93
2021/12/31 03:03:48;;;;;;;3.03;1.20;;;11.90;99.90;;;;;;5009871;28;20101;-92
2021/12/31 03:06:39;;;;;;;1.52;1.00;;;11.80;99.90;;;;;;5020454;28;20092;-90
2021/12/31 03:12:30;;;;;;;1.80;0.93;;;11.80;99.90;;;;;;5030984;28;20033;-92
2021/12/31 03:15:18;;;;;;;1.38;1.17;;;11.80;99.90;;;;;;5039344;28;20036;-92
2021/12/31 03:17:58;;;;;;;1.17;1.00;;;11.90;99.90;;;;;;5007644;28;20056;-92
2021/12/31 03:20:56;;;;;;;;;;;;;;;;;;;;;
2021/12/31 03:23:54;;;;;;;1.23;1.10;;;11.80;99.90;;;;;;5038763;28;20101;-92
2021/12/31 03:26:29;;;;;;;2.10;1.20;;;11.80;99.90;;;;;;5009413;28;20037;-92
2021/12/31 03:28:55;;;;;;;1.95;0.90;;;11.80;99.90;;;;;;5038997;23;20075;-68
2021/12/31 03:31:21;;;;;;;2.47;1.17;;;11.80;99.90;;;;;;5050345;28;20029;-68
2021/12/31 03:33:47;;;;;;;1.05;1.00;;;11.80;99.90;;;;;;5045170;28;20017;-69
2021/12/31 03:36:12;;;;;;;2.00;1.17;;;11.80;99.90;;;;;;5045059;28;20152;-68
2021/12/31 03:38:38;;;;;;;2.63;1.15;;;11.80;99.90;;;;;;5043279;28;20119;-69
2021/12/31 03:41:04;;;;;;;3.33;1.08;;;11.80;99.90;;;;;;5046879;28;20160;-67
2021/12/31 03:43:29;;;;;;;2.80;1.10;;;11.80;99.90;;;;;;5049693;28;20556;-69
2021/12/31 03:45:55;;;;;;;1.88;1.05;;;11.80;99.90;;;;;;5048307;28;20032;-69
2021/12/31 03:48:21;;;;;;;1.77;1.20;;;11.80;99.90;;;;;;5059198;28;20030;-68
2021/12/31 03:50:47;;;;;;;3.95;1.20;;;11.80;99.90;;;;;;5043604;28;20381;-67
2021/12/31 03:53:14;;;;;;;1.40;1.30;;;11.70;99.90;;;;;;5043626;28;20021;-68
2021/12/31 03:55:41;;;;;;;1.20;1.10;;;11.70;99.90;;;;;;5038168;28;20033;-68
2021/12/31 03:58:06;;;;;;;1.25;1.02;;;11.70;99.90;;;;;;5041459;28;20036;-68
2021/12/31 04:00:32;;;;;;;1.40;0.82;;;11.70;99.90;;;;;;5045030;28;20465;-67
2021/12/31 04:03:04;;;;;;;4.45;1.15;;;11.60;99.90;;;;;;5041901;28;20457;-66
2021/12/31 04:05:30;;;;;;;2.53;1.15;;;11.70;99.90;;;;;;5042852;28;20067;-68
2021/12/31 04:07:55;;;;;;;2.67;1.02;;;11.60;99.90;;;;;;5040377;28;20034;-68
2021/12/31 04:10:25;;;;;;;1.13;1.13;;;11.60;99.90;;;;;;5040495;28;20025;-68
2021/12/31 04:12:51;;;;;;;2.97;1.10;;;11.60;99.90;;;;;;5039261;28;20025;-68
2021/12/31 04:15:17;;;;;;;1.50;1.15;;;11.60;99.90;;;;;;5038977;28;20064;-67
2021/12/31 04:17:42;;;;;;;1.50;1.10;;;11.60;99.90;;;;;;5040733;28;20060;-69
2021/12/31 04:20:17;;;;;;;2.28;1.23;;;11.60;99.90;;;;;;5043300;28;20021;-69
2021/12/31 04:22:51;;;;;;;1.60;1.20;;;11.50;99.90;;;;;;5045231;28;20067;-69
2021/12/31 04:25:17;;;;;;;1.23;1.13;;;11.50;99.90;;;;;;5056041;28;20033;-69
2021/12/31 04:27:43;;;;;;;1.92;0.90;;;11.50;99.90;;;;;;5040862;28;20116;-69
2021/12/31 04:30:09;;;;;;;1.92;1.35;;;11.50;99.90;;;;;;5043479;28;20108;-69
2021/12/31 04:32:35;;;;;;;2.40;1.40;;;11.40;99.90;;;;;;5045687;28;20032;-68
2021/12/31 04:35:01;;;;;;;1.20;1.10;;;11.40;99.90;;;;;;5041043;28;20021;-68
2021/12/31 04:37:26;;;;;;;2.15;1.10;;;11.40;99.90;;;;;;5046641;28;20017;-68
2021/12/31 04:39:52;;;;;;;2.08;1.40;;;11.40;99.90;;;;;;5041303;28;20029;-68
2021/12/31 04:42:17;;;;;;;1.55;1.30;;;11.30;99.90;;;;;;5039438;28;20017;-68
2021/12/31 04:44:43;;;;;;;1.58;1.48;;;11.30;99.90;;;;;;5044643;28;20048;-69
2021/12/31 04:47:09;;;;;;;1.67;1.50;;;11.30;99.90;;;;;;5047663;28;20625;-68
2021/12/31 04:49:35;;;;;;;2.13;1.27;;;11.30;99.90;;;;;;5042378;28;20037;-68
2021/12/31 04:52:00;;;;;;;1.30;1.20;;;11.30;99.90;;;;;;5046969;28;20025;-69
2021/12/31 04:54:26;;;;;;;2.28;1.20;;;11.30;99.90;;;;;;5038771;28;20437;-68
2021/12/31 04:56:53;;;;;;;1.38;1.27;;;11.20;99.90;;;;;;5043314;28;20071;-69
2021/12/31 04:59:20;;;;;;;2.05;1.40;;;11.20;99.90;;;;;;5042498;28;20108;-69
2021/12/31 05:01:47;;;;;;;2.58;1.13;;;11.20;99.90;;;;;;5047122;28;20063;-68
2021/12/31 05:04:14;;;;;;;2.78;1.65;;;11.20;99.90;;;;;;5051716;28;20430;-69
2021/12/31 05:06:40;;;;;;;1.50;1.40;;;11.20;99.90;;;;;;5042058;28;20021;-68
2021/12/31 05:09:06;;;;;;;3.17;1.50;;;11.20;99.90;;;;;;5041088;28;20036;-68
2021/12/31 05:11:32;;;;;;;1.50;1.30;;;11.10;99.90;;;;;;5040723;28;20029;-68
2021/12/31 05:13:58;;;;;;;1.52;1.40;;;11.20;99.90;;;;;;5038693;28;20108;-67
2021/12/31 05:16:23;;;;;;;5.07;2.70;;;11.10;99.90;;;;;;5038666;28;20156;-66
2021/12/31 05:18:49;;;;;;;2.17;1.30;;;11.10;99.90;;;;;;5037096;28;20041;-69
2021/12/31 05:21:15;;;;;;;3.05;1.55;;;11.10;99.90;;;;;;5049025;28;20036;-68
2021/12/31 05:23:40;;;;;;;1.60;1.40;;;11.10;99.90;;;;;;5037888;28;20075;-67
2021/12/31 05:26:06;;;;;;;2.72;1.55;;;11.10;99.90;;;;;;5039970;28;20033;-68
2021/12/31 05:28:34;;;;;;;1.25;1.15;;;11.10;99.90;;;;;;5040305;28;20035;-68
2021/12/31 05:31:00;;;;;;;2.65;1.35;;;11.10;99.90;;;;;;5046983;28;20025;-67
2021/12/31 05:33:26;;;;;;;2.67;1.48;;;11.10;99.90;;;;;;5040839;28;20645;-68
2021/12/31 05:35:51;;;;;;;1.98;1.50;;;11.10;99.90;;;;;;5047518;28;20029;-69
2021/12/31 05:38:17;;;;;;;2.95;1.55;;;11.10;99.90;;;;;;5042899;28;20123;-67
2021/12/31 05:40:42;;;;;;;2.20;1.45;;;11.10;99.90;;;;;;5044936;28;20036;-69
2021/12/31 05:43:08;;;;;;;2.08;1.60;;;11.10;99.90;;;;;;5044143;28;20516;-68
2021/12/31 05:45:34;;;;;;;1.48;1.30;;;11.10;99.90;;;;;;5046754;28;20064;-68
2021/12/31 05:47:59;;;;;;;2.28;1.70;;;11.10;99.90;;;;;;5041877;28;20493;-68
2021/12/31 05:50:28;;;;;;;4.53;1.42;;;11.10;99.90;;;;;;5044824;28;20024;-67
2021/12/31 05:52:59;;;;;;;3.65;1.63;;;11.10;99.90;;;;;;5042971;28;20125;-68
2021/12/31 05:55:26;;;;;;;1.70;1.60;;;11.10;99.90;;;;;;5044085;28;20123;-68
2021/12/31 05:57:51;;;;;;;6.07;1.50;;;11.10;99.90;;;;;;5042949;28;20036;-67
2021/12/31 06:00:18;;;;;;;2.10;1.38;;;11.10;99.90;;;;;;5045473;28;20087;-69
2021/12/31 06:02:43;;;;;;;2.47;1.48;;;11.10;99.90;;;;;;5044020;28;20024;-69
2021/12/31 06:05:09;;;;;;;2.97;1.40;;;11.10;99.90;;;;;;5041355;28;20039;-67
2021/12/31 06:07:35;;;;;;;3.63;1.60;;;11.10;99.90;;;;;;5041229;28;20107;-68
2021/12/31 06:10:01;;;;;;;2.40;1.80;;;11.10;99.90;;;;;;5044869;28;20032;-67
2021/12/31 06:12:27;;;;;;;1.50;1.40;;;11.10;99.90;;;;;;5040545;28;20363;-68
2021/12/31 06:14:54;;;;;;;2.40;1.35;;;11.10;99.90;;;;;;5041506;28;20056;-69
2021/12/31 06:17:25;;;;;;;1.45;1.35;;;11.10;99.90;;;;;;5042371;28;20456;-67
2021/12/31 06:19:52;;;;;;;2.47;1.50;;;11.10;99.90;;;;;;5047582;28;20040;-69
2021/12/31 06:22:19;;;;;;;1.45;1.35;;;11.10;99.90;;;;;;5052026;28;20048;-68
2021/12/31 06:24:44;;;;;;;1.50;1.40;;;11.00;99.90;;;;;;5051640;28;20017;-67
2021/12/31 06:27:10;;;;;;;1.55;1.40;;;11.00;99.90;;;;;;5049578;28;20115;-68
2021/12/31 06:29:36;;;;;;;2.97;1.42;;;11.00;99.90;;;;;;5050870;28;20029;-69
2021/12/31 06:32:01;;;;;;;2.85;1.42;;;11.00;99.90;;;;;;5052007;28;20017;-69
2021/12/31 06:34:27;;;;;;;2.28;1.52;;;11.00;99.90;;;;;;5049170;28;20056;-68
2021/12/31 06:36:53;;;;;;;3.42;1.55;;;10.90;99.90;;;;;;5040789;28;20025;-67
2021/12/31 06:39:18;;;;;;;2.10;1.70;;;11.00;99.90;;;;;;5039991;28;20021;-69
2021/12/31 06:41:44;;;;;;;2.60;1.40;;;10.90;99.90;;;;;;5043878;28;20547;-67
2021/12/31 06:44:10;;;;;;;2.13;1.52;;;10.90;99.90;;;;;;5059392;28;20025;-68
2021/12/31 06:46:35;;;;;;;3.53;1.48;;;10.90;99.90;;;;;;5041455;28;20052;-69
2021/12/31 06:49:01;;;;;;;1.50;1.40;;;10.80;99.90;;;;;;5041781;28;20120;-67
2021/12/31 06:51:27;;;;;;;2.88;1.85;;;10.80;99.90;;;;;;5043109;28;20127;-67
2021/12/31 06:53:52;;;;;;;2.90;1.70;;;10.80;99.90;;;;;;5040968;28;20117;-69
2021/12/31 06:56:18;;;;;;;6.43;4.07;;;10.80;99.90;;;;;;5042672;28;20025;-69
2021/12/31 06:58:44;;;;;;;2.50;1.85;;;10.80;99.90;;;;;;5044131;28;20044;-68
2021/12/31 07:01:10;;;;;;;3.03;1.92;;;10.80;99.90;;;;;;5044325;28;20025;-68
2021/12/31 07:03:36;;;;;;;1.75;1.40;;;10.80;99.90;;;;;;5043519;28;20031;-68
2021/12/31 07:06:02;;;;;;;1.60;1.50;;;10.80;99.90;;;;;;5041131;28;20020;-68
2021/12/31 07:08:27;;;;;;;3.85;1.73;;;10.90;99.90;;;;;;5040668;28;20075;-67
2021/12/31 07:10:53;;;;;;;3.15;2.13;;;10.80;99.90;;;;;;5040566;28;20112;-68
2021/12/31 07:13:19;;;;;;;5.10;2.00;;;10.80;99.90;;;;;;5043530;28;20099;-68
2021/12/31 07:15:48;;;;;;;2.92;1.70;;;10.80;99.90;;;;;;5041850;28;20392;-68
2021/12/31 07:18:14;;;;;;;2.00;1.65;;;10.80;99.90;;;;;;5041370;28;20112;-67
2021/12/31 07:20:40;;;;;;;1.73;1.58;;;10.80;99.90;;;;;;5042835;28;20548;-67
2021/12/31 07:23:08;;;;;;;3.25;2.17;;;10.70;99.90;;;;;;5043061;28;20156;-66
2021/12/31 07:25:34;;;;;;;3.05;1.98;;;10.70;99.90;;;;;;5041042;28;20068;-67
2021/12/31 07:28:01;;;;;;;3.92;1.50;;;10.60;99.90;;;;;;5042963;28;20724;-67
2021/12/31 07:30:27;;;;;;;2.10;1.60;;;10.60;99.90;;;;;;5040661;28;20029;-68
2021/12/31 07:32:53;;;;;;;3.13;1.80;;;10.60;99.90;;;;;;5040456;28;20025;-68
2021/12/31 07:35:18;;;;;;;1.83;1.73;;;10.60;99.90;;;;;;5041881;28;20025;-66
2021/12/31 07:37:44;;;;;;;1.60;1.42;;;10.60;99.90;;;;;;5041977;28;20025;-67
2021/12/31 07:40:12;;;;;;;1.60;1.50;;;10.50;99.90;;;;;;5048953;28;20021;-68
2021/12/31 07:42:38;;;;;;;3.45;1.88;;;10.50;99.90;;;;;;5046657;28;20569;-68
2021/12/31 07:45:05;;;;;;;2.50;1.75;;;10.50;99.90;;;;;;5050096;28;20033;-68
2021/12/31 07:47:31;;;;;;;5.28;2.30;;;10.50;99.90;;;;;;5042431;28;20456;-68
2021/12/31 07:49:57;;;;;;;3.53;2.20;;;10.50;99.90;;;;;;5044551;28;20041;-68
2021/12/31 07:52:22;;;;;;;3.00;2.10;;;10.50;99.90;;;;;;5042132;28;20032;-67
2021/12/31 07:54:48;;;;;;;4.25;2.03;;;10.50;99.90;;;;;;5043798;28;20049;-68
2021/12/31 07:57:14;;;;;;;3.25;2.78;;;10.50;99.90;;;;;;5048004;28;20093;-67
2021/12/31 07:59:40;;;;;;;4.53;3.08;;;10.50;99.90;;;;;;5049526;28;20389;-67
2021/12/31 08:02:05;;;;;;;4.05;2.85;;;10.50;99.90;;;;;;5050956;28;20493;-67
2021/12/31 08:04:31;;;;;;;6.43;3.63;;;10.50;99.90;;;;;;5044293;28;20509;-68
2021/12/31 08:06:56;;;;;;;9.07;4.25;;;10.50;99.90;;;;;;5050285;28;20050;-66
2021/12/31 08:09:22;;;;;;;6.90;4.85;;;10.50;99.90;;;;;;5049994;28;20159;-67
2021/12/31 08:11:48;;;;;;;7.28;4.03;;;10.50;99.90;;;;;;5048243;28;20028;-67
2021/12/31 08:14:13;;;;;;;4.35;3.28;;;10.50;99.90;;;;;;5050175;28;20044;-67
2021/12/31 08:16:39;;;;;;;3.70;2.80;;;10.50;99.90;;;;;;5036699;28;20048;-67
2021/12/31 08:19:06;;;;;;;2.70;2.30;;;10.50;99.90;;;;;;5048932;28;20033;-66
2021/12/31 08:21:32;;;;;;;2.38;2.17;;;10.50;99.90;;;;;;5049973;28;20063;-66
2021/12/31 08:23:58;;;;;;;4.40;2.90;;;10.40;99.90;;;;;;5042106;28;20431;-68
2021/12/31 08:26:23;;;;;;;5.53;4.10;;;10.50;99.90;;;;;;5053980;28;20089;-66
2021/12/31 08:28:49;;;;;;;8.00;3.75;;;10.40;99.90;;;;;;5054391;28;20793;-68
2021/12/31 08:31:15;;;;;;;10.95;5.68;;;10.50;99.90;;;;;;5049961;28;20025;-68
2021/12/31 08:33:40;;;;;;;8.55;4.55;;;10.40;99.90;;;;;;5049818;28;20029;-68
2021/12/31 08:36:07;;;;;;;10.13;4.85;;;10.50;99.90;;;;;;5051317;28;20389;-68
2021/12/31 08:38:33;;;;;;;4.85;3.47;;;10.50;99.90;;;;;;5044147;28;20053;-68
2021/12/31 08:41:00;;;;;;;5.40;2.70;;;10.50;99.90;;;;;;5046282;28;20068;-68
2021/12/31 08:43:27;;;;;;;4.15;3.72;;;10.50;99.90;;;;;;5050161;28;20048;-68
2021/12/31 08:45:52;;;;;;;2.40;1.92;;;10.50;99.90;;;;;;5048974;28;20425;-68
2021/12/31 08:48:18;;;;;;;2.85;2.13;;;10.50;99.90;;;;;;5043502;28;20033;-67
2021/12/31 08:50:44;;;;;;;2.72;2.33;;;10.50;99.90;;;;;;5041020;28;20026;-67
2021/12/31 08:53:09;;;;;;;3.38;1.80;;;10.50;99.90;;;;;;5040407;28;20056;-67
2021/12/31 08:55:35;;;;;;;2.88;1.60;;;10.50;99.90;;;;;;5048717;28;20039;-67
2021/12/31 08:58:01;;;;;;;2.75;1.63;;;10.50;99.90;;;;;;5048218;28;20060;-69
2021/12/31 09:00:27;;;;;;;2.15;1.52;;;10.60;99.90;;;;;;5040881;28;20105;-66
2021/12/31 09:02:52;;;;;;;2.75;1.60;;;10.50;99.90;;;;;;5049606;28;20028;-70
2021/12/31 09:05:18;;;;;;;2.80;1.80;;;10.60;99.90;;;;;;5050661;28;20040;-67
2021/12/31 09:07:44;;;;;;;2.42;1.73;;;10.60;99.90;;;;;;5043998;28;20040;-67
2021/12/31 09:10:10;;;;;;;3.10;1.60;;;10.60;99.90;;;;;;5041816;28;20021;-66
2021/12/31 09:12:37;;;;;;;2.90;1.80;;;10.60;99.90;;;;;;5044380;28;20473;-67
2021/12/31 09:15:04;;;;;;;1.92;1.70;;;10.60;99.90;;;;;;5046935;28;20021;-66
2021/12/31 09:17:30;;;;;;;1.63;1.48;;;10.60;99.90;;;;;;5049411;28;20081;-67
2021/12/31 09:19:55;;;;;;;1.70;1.60;;;10.60;99.90;;;;;;5052461;28;20029;-67
2021/12/31 09:22:21;;;;;;;4.15;1.63;;;10.70;99.90;;;;;;5049867;28;20385;-66
2021/12/31 09:24:48;;;;;;;1.60;1.50;;;10.70;99.90;;;;;;5048654;28;20037;-68
2021/12/31 09:27:14;;;;;;;1.85;1.75;;;10.70;99.90;;;;;;5067731;28;20082;-67
2021/12/31 09:29:40;;;;;;;2.95;1.77;;;10.70;99.90;;;;;;5062478;28;20024;-67
2021/12/31 09:32:06;;;;;;;2.00;1.58;;;10.70;99.90;;;;;;5054780;28;20063;-67
2021/12/31 09:34:32;;;;;;;2.70;1.60;;;10.80;99.90;;;;;;5055627;28;20877;-67
2021/12/31 09:36:57;;;;;;;3.72;1.45;;;10.80;99.90;;;;;;5056294;28;20043;-67
2021/12/31 09:39:23;;;;;;;1.73;1.55;;;10.80;99.90;;;;;;5054396;28;20029;-69
2021/12/31 09:41:49;;;;;;;2.15;1.75;;;10.80;99.90;;;;;;5054926;28;20068;-67
2021/12/31 09:44:15;;;;;;;3.13;1.80;;;10.90;99.90;;;;;;5053981;28;20033;-68
2021/12/31 09:46:42;;;;;;;2.83;1.42;;;10.90;99.90;;;;;;5052940;28;20024;-68
2021/12/31 09:49:08;;;;;;;2.20;1.40;;;10.90;99.90;;;;;;5052812;28;20035;-67
2021/12/31 09:51:34;;;;;;;1.70;1.60;;;10.90;99.90;;;;;;5052773;28;20495;-68
2021/12/31 09:54:01;;;;;;;3.30;1.55;;;10.90;99.90;;;;;;5054258;28;20017;-68
2021/12/31 09:56:27;;;;;;;3.05;2.40;;;10.90;99.90;;;;;;5053664;28;20443;-68
2021/12/31 09:58:53;;;;;;;4.40;1.52;;;11.00;99.90;;;;;;5052403;28;20032;-67
2021/12/31 10:01:19;;;;;;;4.00;1.58;;;11.00;99.90;;;;;;5036888;28;20057;-68
2021/12/31 10:03:57;;;;;;;1.60;1.45;;;11.00;99.90;;;;;;5049335;28;20057;-66
2021/12/31 10:06:26;;;;;;;3.03;1.50;;;11.10;99.90;;;;;;5049178;28;20050;-66
2021/12/31 10:08:53;;;;;;;1.73;1.10;;;11.10;99.90;;;;;;5051720;28;20025;-66
2021/12/31 10:11:23;;;;;;;3.75;1.65;;;11.20;99.90;;;;;;5052879;28;20032;-66
2021/12/31 10:14:00;;;;;;;1.88;1.20;;;11.20;99.90;;;;;;5052826;28;20385;-66
2021/12/31 10:16:29;;;;;;;2.47;1.10;;;11.20;99.90;;;;;;5055999;22;20041;-67
2021/12/31 10:19:15;;;;;;;2.28;1.20;;;11.20;99.90;;;;;;5036174;28;20108;-68
2021/12/31 10:21:42;;;;;;;1.33;1.20;;;11.30;99.90;;;;;;5043416;28;20028;-68
2021/12/31 10:24:26;;;;;;;1.80;1.30;;;11.30;99.90;;;;;;5043745;28;20025;-68
2021/12/31 10:27:12;;;;;;;2.03;1.30;;;11.30;99.90;;;;;;5048765;28;20072;-68
2021/12/31 10:30:03;;;;;;;2.80;1.23;;;11.40;99.90;;;;;;5033176;28;20033;-68
2021/12/31 10:32:40;;;;;;;1.75;1.10;;;11.50;99.90;;;;;;5028731;28;20025;-67
2021/12/31 10:35:20;;;;;;;1.30;1.20;;;11.50;99.90;;;;;;5028260;28;20095;-68
2021/12/31 10:37:52;;;;;;;1.52;1.20;;;11.50;99.90;;;;;;5046688;28;20045;-68
2021/12/31 10:40:32;;;;;;;1.60;1.10;;;11.60;99.90;;;;;;5032622;28;20112;-68
2021/12/31 10:43:18;;;;;;;1.15;1.00;;;11.60;99.90;;;;;;5029877;28;20030;-69
2021/12/31 10:46:04;;;;;;;1.02;0.98;;;11.60;99.90;;;;;;5033267;28;20485;-68
2021/12/31 10:48:54;;;;;;;3.00;1.00;;;11.60;99.90;;;;;;5030907;28;20382;-68
2021/12/31 10:51:43;;;;;;;1.33;1.08;;;11.60;99.90;;;;;;5049586;28;20053;-67
2021/12/31 10:55:01;;;;;;;0.93;0.93;;;11.70;99.90;;;;;;5031814;28;20080;-67
2021/12/31 10:57:38;;;;;;;1.48;1.00;;;11.70;99.90;;;;;;5026835;28;20045;-68
2021/12/31 11:00:05;;;;;;;0.90;0.90;;;11.70;99.90;;;;;;5031359;28;20442;-67
2021/12/31 11:02:35;;;;;;;1.60;1.13;;;11.70;99.90;;;;;;5031608;28;20428;-67
2021/12/31 11:05:01;;;;;;;1.00;0.90;;;11.80;99.90;;;;;;5032485;28;20208;-67
2021/12/31 11:07:30;;;;;;;1.10;0.90;;;11.80;99.90;;;;;;5029017;28;20129;-67
2021/12/31 11:10:00;;;;;;;1.92;0.98;;;11.90;99.90;;;;;;5057085;28;20041;-68
2021/12/31 11:12:27;;;;;;;1.63;1.10;;;11.90;99.90;;;;;;5025369;28;20549;-69
2021/12/31 11:14:53;;;;;;;1.00;1.00;;;12.00;99.90;;;;;;5030670;28;20094;-69
2021/12/31 11:17:19;;;;;;;1.00;1.00;;;12.00;99.90;;;;;;5031809;28;20042;-68
2021/12/31 11:19:48;;;;;;;0.88;0.88;;;12.00;99.90;;;;;;5031200;28;20083;-68
2021/12/31 11:22:14;;;;;;;0.95;0.95;;;12.10;99.90;;;;;;5026664;28;20515;-68
2021/12/31 11:24:40;;;;;;;1.50;0.93;;;12.10;99.90;;;;;;5031291;28;20037;-68
2021/12/31 11:27:42;;;;;;;1.10;1.10;;;12.10;99.90;;;;;;5031392;28;20452;-68
2021/12/31 11:30:26;;;;;;;1.83;1.10;;;12.20;99.90;;;;;;5025040;28;20049;-68
2021/12/31 11:33:08;;;;;;;1.10;1.05;;;12.30;99.90;;;;;;5046146;28;20025;-68
2021/12/31 11:35:46;;;;;;;0.93;0.90;;;12.30;99.90;;;;;;5040549;28;20026;-68
2021/12/31 11:38:44;;;;;;;0.95;0.90;;;12.30;99.90;;;;;;5030004;28;20057;-68
2021/12/31 11:41:19;;;;;;;0.80;0.80;;;12.40;99.90;;;;;;5038658;28;20662;-68
2021/12/31 11:44:02;;;;;;;3.25;1.00;;;12.40;99.90;;;;;;5031427;28;20029;-68
2021/12/31 11:46:32;;;;;;;1.45;1.10;;;12.40;99.90;;;;;;5040641;28;20036;-68
2021/12/31 11:48:59;;;;;;;0.90;0.90;;;12.50;99.90;;;;;;5028608;28;20036;-69
2021/12/31 11:51:34;;;;;;;1.15;1.05;;;12.60;99.90;;;;;;5026501;28;20087;-72
2021/12/31 11:54:00;;;;;;;1.23;1.13;;;12.60;99.90;;;;;;5030282;28;20079;-68
2021/12/31 11:56:39;;;;;;;0.82;0.82;;;12.70;99.90;;;;;;5032656;28;20421;-71
2021/12/31 11:59:08;;;;;;;1.63;0.95;;;12.70;99.90;;;;;;5045534;28;20042;-70
2021/12/31 12:01:37;;;;;;;2.17;1.15;;;12.80;99.90;;;;;;5030285;28;20029;-69
2021/12/31 12:04:28;;;;;;;1.10;1.00;;;12.90;99.90;;;;;;5030494;28;20039;-69
2021/12/31 12:06:58;;;;;;;1.48;0.88;;;13.00;99.90;;;;;;5030592;28;20029;-69
2021/12/31 12:09:44;;;;;;;1.15;0.80;;;13.10;99.90;;;;;;5030093;28;20099;-69
2021/12/31 12:12:36;;;;;;;0.90;0.82;;;13.20;99.90;;;;;;5030029;28;20380;-69
2021/12/31 12:15:27;;;;;;;1.42;0.90;;;13.30;99.90;;;;;;5031182;28;20124;-69
2021/12/31 12:17:53;;;;;;;1.88;0.85;;;13.60;99.90;;;;;;5029755;28;20033;-69
2021/12/31 12:20:19;;;;;;;3.15;2.80;;;13.80;99.90;;;;;;5030856;28;20477;-69
2021/12/31 12:22:50;;;;;;;2.45;1.50;;;14.00;99.90;;;;;;5030459;28;20483;-69
2021/12/31 12:25:20;;;;;;;1.38;1.10;;;14.00;99.90;;;;;;5030132;28;20044;-69
2021/12/31 12:27:48;;;;;;;0.80;0.80;;;14.10;99.90;;;;;;5037712;28;20025;-69
2021/12/31 12:30:16;;;;;;;2.30;0.80;;;14.20;99.90;;;;;;5030475;28;20120;-69
2021/12/31 12:35:18;;;;;;;0.93;0.88;;;14.40;99.90;;;;;;5032140;28;20115;-69
2021/12/31 12:37:54;;;;;;;0.88;0.85;;;14.50;99.90;;;;;;5029230;28;20022;-69
2021/12/31 12:40:19;;;;;;;1.35;0.90;;;14.60;99.90;;;;;;5030330;28;20030;-69
2021/12/31 12:42:46;;;;;;;3.47;0.90;;;14.80;99.90;;;;;;5030250;28;20397;-69
2021/12/31 12:45:12;;;;;;;0.95;0.80;;;15.00;99.90;;;;;;5029854;28;20159;-69
2021/12/31 12:47:38;;;;;;;0.90;0.90;;;15.20;99.90;;;;;;5029204;28;20465;-69
2021/12/31 12:50:09;;;;;;;0.80;0.70;;;15.20;99.90;;;;;;5030243;28;20036;-69
2021/12/31 12:52:36;;;;;;;0.77;0.77;;;15.50;99.90;;;;;;5030135;28;20432;-68
2021/12/31 12:55:13;;;;;;;0.70;0.70;;;15.70;99.90;;;;;;5029868;28;20355;-69
2021/12/31 12:57:40;;;;;;;0.90;0.90;;;15.90;99.90;;;;;;5028866;28;20482;-69
2021/12/31 13:00:08;;;;;;;0.80;0.80;;;15.90;99.90;;;;;;5030308;28;20033;-69
2021/12/31 13:02:45;;;;;;;0.98;0.80;;;15.90;99.90;;;;;;5029846;28;20056;-69
2021/12/31 13:05:14;;;;;;;0.85;0.85;;;15.80;99.90;;;;;;5030247;28;20033;-69
2021/12/31 13:07:53;;;;;;;0.70;0.70;;;15.60;99.90;;;;;;5028933;28;20493;-69
2021/12/31 13:10:25;;;;;;;0.82;0.82;;;15.50;99.90;;;;;;5029630;28;20382;-69
2021/12/31 13:12:53;;;;;;;1.00;0.82;;;15.30;99.90;;;;;;5029904;28;20018;-68
2021/12/31 13:15:19;;;;;;;3.58;2.85;;;15.30;99.90;;;;;;5030111;28;20087;-69
2021/12/31 13:18:04;;;;;;;2.95;2.10;;;15.10;99.90;;;;;;5028738;28;20048;-68
2021/12/31 13:20:31;;;;;;;1.80;0.90;;;15.00;99.90;;;;;;5029715;28;20034;-69
2021/12/31 13:22:59;;;;;;;1.52;0.80;;;14.90;99.90;;;;;;5029654;28;20029;-69
2021/12/31 13:25:41;;;;;;;1.65;0.88;;;14.80;99.90;;;;;;5029200;28;20068;-68
2021/12/31 13:28:18;;;;;;;0.82;0.77;;;14.70;99.90;;;;;;5028711;28;20033;-69
2021/12/31 13:30:59;;;;;;;0.65;0.60;;;14.60;99.90;;;;;;5030507;28;20029;-68
2021/12/31 13:33:32;;;;;;;1.77;0.57;;;14.50;99.90;;;;;;5029896;28;20025;-68
2021/12/31 13:36:21;;;;;;;0.60;0.60;;;14.50;99.90;;;;;;5029992;28;20030;-69
2021/12/31 13:38:58;;;;;;;1.17;0.80;;;14.40;99.90;;;;;;5028711;28;20492;-69
2021/12/31 13:41:25;;;;;;;0.90;0.73;;;14.30;99.90;;;;;;5029303;28;20038;-69
2021/12/31 13:44:00;;;;;;;0.70;0.70;;;14.30;99.90;;;;;;5029640;28;22087;-69
2021/12/31 13:46:47;;;;;;;1.48;0.70;;;14.20;99.90;;;;;;5029509;28;20090;-69
2021/12/31 13:49:16;;;;;;;2.15;0.90;;;14.30;99.90;;;;;;5027296;28;20029;-69
2021/12/31 13:51:42;;;;;;;1.88;1.10;;;14.30;99.90;;;;;;5029559;28;20021;-69